Time;durP1;ratioP1;P1;durP2;ratioP2;P2;SDS_P1;SDS_P2;PMS_P1;PMS_P2;Temp;Humidity;BMP_temperature;BMP_pressure;BME280_temperature;BME280_humidity;BME280_pressure;Samples;Min_cycle;Max_cycle;Signal;HPM_P1;HPM_P2
2021/12/09 00:00:06;;;;;;;;;;;;;;;3.21;59.35;98974.84;4487631;32;19968;-92
2021/12/09 00:02:32;;;;;;;;;;;;;;;3.46;59.36;98961.59;4474752;32;19977;-89
2021/12/09 00:04:58;;;;;;;;;;;;;;;3.34;59.36;98960.94;4475907;31;20035;-92
2021/12/09 00:07:24;;;;;;;;;;;;;;;3.42;59.37;98962.53;4489699;32;19984;-92
2021/12/09 00:09:50;;;;;;;;;;;;;;;3.30;59.35;98958.41;4475355;32;20030;-92
2021/12/09 00:12:15;;;;;;;;;;;;;;;3.33;59.36;98966.09;4474709;32;19985;-91
2021/12/09 00:14:40;;;;;;;;;;;;;;;3.34;59.36;98976.38;4473727;32;22437;-90
2021/12/09 00:17:06;;;;;;;;;;;;;;;3.16;59.36;98981.78;4474162;32;19984;-91
2021/12/09 00:19:32;;;;;;;;;;;;;;;3.32;59.37;98983.25;4474579;32;20011;-90
2021/12/09 00:21:58;;;;;;;;;;;;;;;3.46;59.37;98990.75;4474460;32;19996;-90
2021/12/09 00:24:23;;;;;;;;;;;;;;;3.52;59.37;98984.66;4474503;32;20025;-91
2021/12/09 00:26:49;;;;;;;;;;;;;;;3.56;59.38;98987.19;4474562;32;20036;-89
2021/12/09 00:29:15;;;;;;;;;;;;;;;3.27;59.36;98987.59;4489617;32;19976;-90
2021/12/09 00:31:40;;;;;;;;;;;;;;;3.34;59.37;98978.09;4474705;32;19981;-91
2021/12/09 00:34:05;;;;;;;;;;;;;;;3.23;59.35;98972.25;4474593;32;19987;-90
2021/12/09 00:36:39;;;;;;;;;;;;;;;3.13;59.35;98950.97;4474188;32;20329;-90
2021/12/09 00:39:04;;;;;;;;;;;;;;;3.26;59.36;98942.19;4475291;32;20041;-90
2021/12/09 00:41:29;;;;;;;;;;;;;;;3.46;59.36;98941.03;4474389;32;20294;-91
2021/12/09 00:43:55;;;;;;;;;;;;;;;3.31;59.36;98940.41;4473867;32;21373;-92
2021/12/09 00:46:20;;;;;;;;;;;;;;;3.35;59.36;98949.78;4474373;32;20003;-91
2021/12/09 00:48:45;;;;;;;;;;;;;;;3.26;59.36;98944.75;4476240;32;25265;-91
2021/12/09 00:51:11;;;;;;;;;;;;;;;3.22;59.35;98934.53;4474301;32;20323;-90
2021/12/09 00:53:37;;;;;;;;;;;;;;;3.23;59.35;98921.66;4474360;32;19969;-90
2021/12/09 00:56:02;;;;;;;;;;;;;;;3.13;59.35;98912.41;4474315;32;20003;-90
2021/12/09 00:58:28;;;;;;;;;;;;;;;3.20;59.35;98906.28;4474293;32;20010;-93
2021/12/09 01:00:53;;;;;;;;;;;;;;;2.92;59.33;98900.72;4474228;32;19997;-94
2021/12/09 01:03:18;;;;;;;;;;;;;;;3.08;59.34;98899.62;4474203;32;19996;-95
2021/12/09 01:05:44;;;;;;;;;;;;;;;2.88;59.34;98906.78;4473907;32;21508;-92
2021/12/09 01:08:09;;;;;;;;;;;;;;;3.07;59.34;98905.59;4477157;32;20034;-92
2021/12/09 01:10:34;;;;;;;;;;;;;;;2.96;59.34;98914.38;4474514;32;19973;-93
2021/12/09 01:13:00;;;;;;;;;;;;;;;2.80;59.33;98928.31;4474374;32;19976;-93
2021/12/09 01:15:26;;;;;;;;;;;;;;;2.97;59.34;98929.78;4474394;32;20022;-93
2021/12/09 01:17:52;;;;;;;;;;;;;;;2.88;59.34;98936.78;4474975;32;19961;-93
2021/12/09 01:20:17;;;;;;;;;;;;;;;2.96;59.35;98930.66;4474582;32;20011;-93
2021/12/09 01:22:44;;;;;;;;;;;;;;;3.05;59.34;98927.94;4474359;32;20012;-91
2021/12/09 01:25:10;;;;;;;;;;;;;;;3.03;59.35;98926.25;4474063;32;19985;-91
2021/12/09 01:27:38;;;;;;;;;;;;;;;3.04;59.35;98926.22;4476054;32;19984;-92
2021/12/09 01:30:09;;;;;;;;;;;;;;;3.14;59.35;98934.66;4474135;32;20011;-93
2021/12/09 01:32:34;;;;;;;;;;;;;;;3.03;59.35;98923.69;4474632;32;19973;-93
2021/12/09 01:34:59;;;;;;;;;;;;;;;3.20;59.36;98915.72;4474033;32;20269;-91
2021/12/09 01:37:25;;;;;;;;;;;;;;;3.16;59.35;98903.78;4474061;32;20011;-91
2021/12/09 01:39:50;;;;;;;;;;;;;;;3.06;59.35;98895.34;4473833;32;20004;-93
2021/12/09 01:42:17;;;;;;;;;;;;;;;3.19;59.35;98896.87;4473273;32;23799;-93
2021/12/09 01:44:42;;;;;;;;;;;;;;;3.11;59.35;98883.28;4473944;32;19981;-93
2021/12/09 01:47:07;;;;;;;;;;;;;;;3.13;59.35;98873.84;4473826;32;20037;-92
2021/12/09 01:49:32;;;;;;;;;;;;;;;3.13;59.35;98866.13;4475243;32;25967;-93
2021/12/09 01:51:58;;;;;;;;;;;;;;;3.07;59.34;98869.62;4473965;32;20046;-94
2021/12/09 01:54:24;;;;;;;;;;;;;;;2.92;59.33;98862.16;4472969;32;28125;-94
2021/12/09 01:56:49;;;;;;;;;;;;;;;3.15;59.35;98859.22;4474202;32;19996;-93
2021/12/09 01:59:14;;;;;;;;;;;;;;;3.03;59.35;98856.84;4474317;32;20009;-95
2021/12/09 02:01:40;;;;;;;;;;;;;;;2.54;59.32;98847.31;4475357;32;20004;-91
2021/12/09 02:04:05;;;;;;;;;;;;;;;2.92;59.33;98857.03;4475590;32;20000;-92
2021/12/09 02:06:31;;;;;;;;;;;;;;;3.08;59.34;98852.50;4475787;32;19992;-92
2021/12/09 02:08:56;;;;;;;;;;;;;;;2.82;59.33;98847.75;4476782;32;19976;-91
2021/12/09 02:11:21;;;;;;;;;;;;;;;2.98;59.34;98849.22;4483277;32;19984;-92
2021/12/09 02:13:47;;;;;;;;;;;;;;;3.10;59.35;98843.03;4501559;31;19967;-93
2021/12/09 02:16:13;;;;;;;;;;;;;;;2.91;59.33;98824.47;4485708;32;19988;-91
2021/12/09 02:18:39;;;;;;;;;;;;;;;2.65;59.33;98806.91;4481619;32;19977;-91
2021/12/09 02:21:05;;;;;;;;;;;;;;;2.66;59.33;98812.87;4476381;32;19976;-92
2021/12/09 02:23:31;;;;;;;;;;;;;;;2.57;59.31;98823.28;4475701;32;19980;-90
2021/12/09 02:25:56;;;;;;;;;;;;;;;2.62;59.32;98832.66;4475270;32;19992;-90
2021/12/09 02:28:21;;;;;;;;;;;;;;;2.55;59.32;98833.59;4475078;32;19987;-89
2021/12/09 02:30:46;;;;;;;;;;;;;;;2.69;59.33;98839.38;4474860;32;19980;-90
2021/12/09 02:33:12;;;;;;;;;;;;;;;2.84;59.33;98850.28;4475642;32;20318;-90
2021/12/09 02:35:38;;;;;;;;;;;;;;;2.81;59.33;98846.03;4488307;32;20000;-88
2021/12/09 02:38:03;;;;;;;;;;;;;;;2.57;59.31;98824.12;4475733;32;20007;-90
2021/12/09 02:40:29;;;;;;;;;;;;;;;2.45;59.32;98822.59;4480442;31;19957;-91
2021/12/09 02:42:54;;;;;;;;;;;;;;;2.28;59.29;98842.53;4482375;32;19999;-90
2021/12/09 02:45:20;;;;;;;;;;;;;;;2.78;59.32;98820.41;4474876;32;22784;-90
2021/12/09 02:47:46;;;;;;;;;;;;;;;2.67;59.32;98825.72;4475379;32;19976;-90
2021/12/09 02:50:11;;;;;;;;;;;;;;;2.68;59.33;98859.97;4488208;32;20234;-89
2021/12/09 02:52:38;;;;;;;;;;;;;;;2.71;59.33;98862.47;4475121;32;20006;-90
2021/12/09 02:55:04;;;;;;;;;;;;;;;2.52;59.32;98858.47;4475303;32;20913;-89
2021/12/09 02:57:29;;;;;;;;;;;;;;;2.62;59.32;98834.37;4475279;32;19992;-89
2021/12/09 02:59:54;;;;;;;;;;;;;;;2.81;59.33;98827.19;4475126;32;20263;-91
2021/12/09 03:02:20;;;;;;;;;;;;;;;2.68;59.33;98821.41;4476823;32;20154;-87
2021/12/09 03:04:47;;;;;;;;;;;;;;;2.64;59.33;98838.59;4474951;31;19996;-87
2021/12/09 03:07:13;;;;;;;;;;;;;;;2.41;59.31;98822.69;4488157;32;20028;-89
2021/12/09 03:09:48;;;;;;;;;;;;;;;2.51;59.32;98824.22;4474795;32;19988;-89
2021/12/09 03:12:15;;;;;;;;;;;;;;;2.61;59.32;98805.25;4475465;32;19996;-89
2021/12/09 03:14:40;;;;;;;;;;;;;;;2.67;59.32;98805.16;4475211;32;19975;-89
2021/12/09 03:17:05;;;;;;;;;;;;;;;2.53;59.32;98816.50;4474816;32;20893;-89
2021/12/09 03:19:31;;;;;;;;;;;;;;;2.37;59.31;98829.59;4474961;32;19999;-89
2021/12/09 03:21:57;;;;;;;;;;;;;;;2.56;59.32;98837.00;4476586;32;20006;-89
2021/12/09 03:24:22;;;;;;;;;;;;;;;2.86;59.33;98846.84;4474844;32;20012;-88
2021/12/09 03:26:49;;;;;;;;;;;;;;;2.90;59.34;98850.22;4474471;32;19985;-89
2021/12/09 03:29:14;;;;;;;;;;;;;;;3.01;59.34;98844.00;4474661;32;19980;-90
2021/12/09 03:31:40;;;;;;;;;;;;;;;3.01;59.34;98840.59;4475040;32;20002;-89
2021/12/09 03:34:06;;;;;;;;;;;;;;;3.10;59.35;98817.31;4474749;32;20000;-90
2021/12/09 03:36:31;;;;;;;;;;;;;;;2.83;59.34;98805.75;4474787;32;19977;-89
2021/12/09 03:38:57;;;;;;;;;;;;;;;2.51;59.32;98807.97;4475063;32;19976;-88
2021/12/09 03:41:22;;;;;;;;;;;;;;;2.74;59.33;98819.59;4474989;32;20455;-89
2021/12/09 03:43:47;;;;;;;;;;;;;;;2.87;59.33;98822.00;4474135;32;20034;-90
2021/12/09 03:46:12;;;;;;;;;;;;;;;2.93;59.34;98827.87;4474326;32;20000;-89
2021/12/09 03:48:38;;;;;;;;;;;;;;;3.05;59.35;98829.38;4474089;32;19984;-89
2021/12/09 03:51:03;;;;;;;;;;;;;;;3.14;59.35;98834.37;4473664;32;20019;-89
2021/12/09 03:53:29;;;;;;;;;;;;;;;3.03;59.35;98828.56;4473951;32;20028;-88
2021/12/09 03:55:54;;;;;;;;;;;;;;;2.95;59.35;98833.84;4473687;32;19991;-89
2021/12/09 03:58:20;;;;;;;;;;;;;;;3.08;59.34;98829.34;4486855;32;20030;-90
2021/12/09 04:00:45;;;;;;;;;;;;;;;3.32;59.37;98833.22;4487613;32;20015;-89
2021/12/09 04:03:10;;;;;;;;;;;;;;;3.30;59.35;98837.53;4476575;32;19999;-89
2021/12/09 04:05:36;;;;;;;;;;;;;;;3.23;59.35;98833.38;4474442;32;20400;-89
2021/12/09 04:08:01;;;;;;;;;;;;;;;3.30;59.35;98828.09;4474504;32;19972;-89
2021/12/09 04:10:26;;;;;;;;;;;;;;;3.24;59.35;98827.34;4474190;32;20003;-90
2021/12/09 04:12:51;;;;;;;;;;;;;;;2.96;59.35;98819.25;4474712;32;19999;-89
2021/12/09 04:15:17;;;;;;;;;;;;;;;3.03;59.34;98816.56;4474281;32;19996;-90
2021/12/09 04:17:42;;;;;;;;;;;;;;;2.85;59.33;98818.59;4474498;32;20037;-90
2021/12/09 04:20:08;;;;;;;;;;;;;;;2.93;59.33;98809.88;4474210;32;20012;-92
2021/12/09 04:22:33;;;;;;;;;;;;;;;3.06;59.35;98821.63;4475781;32;20012;-93
2021/12/09 04:24:58;;;;;;;;;;;;;;;3.29;59.35;98818.69;4474458;32;19972;-93
2021/12/09 04:27:25;;;;;;;;;;;;;;;3.23;59.35;98836.78;4474592;32;20034;-93
2021/12/09 04:29:50;;;;;;;;;;;;;;;3.27;59.36;98840.16;4474070;32;19996;-92
2021/12/09 04:32:15;;;;;;;;;;;;;;;3.40;59.37;98844.22;4474418;32;20369;-93
2021/12/09 04:34:41;;;;;;;;;;;;;;;3.19;59.35;98840.28;4474425;32;20061;-91
2021/12/09 04:37:06;;;;;;;;;;;;;;;3.26;59.36;98834.16;4473944;32;22587;-91
2021/12/09 04:39:31;;;;;;;;;;;;;;;3.28;59.36;98826.41;4474338;32;19992;-92
2021/12/09 04:41:56;;;;;;;;;;;;;;;3.14;59.35;98813.81;4476628;32;20025;-93
2021/12/09 04:44:22;;;;;;;;;;;;;;;3.02;59.34;98808.88;4474387;32;20354;-92
2021/12/09 04:46:47;;;;;;;;;;;;;;;2.95;59.35;98803.00;4474104;32;20006;-92
2021/12/09 04:49:12;;;;;;;;;;;;;;;3.03;59.34;98803.69;4474440;32;19984;-92
2021/12/09 04:51:38;;;;;;;;;;;;;;;3.04;59.35;98800.25;4474192;32;20041;-92
2021/12/09 04:54:03;;;;;;;;;;;;;;;3.09;59.34;98805.34;4474228;32;19972;-92
2021/12/09 04:56:29;;;;;;;;;;;;;;;3.13;59.35;98812.13;4487593;32;19980;-92
2021/12/09 04:58:54;;;;;;;;;;;;;;;3.15;59.35;98791.53;4473868;32;21497;-92
2021/12/09 05:01:19;;;;;;;;;;;;;;;3.16;59.36;98791.50;4476592;32;20259;-90
2021/12/09 05:03:47;;;;;;;;;;;;;;;3.30;59.35;98792.06;4487647;32;19953;-90
2021/12/09 05:06:12;;;;;;;;;;;;;;;3.12;59.35;98804.44;4477037;32;19984;-91
2021/12/09 05:08:44;;;;;;;;;;;;;;;3.13;59.35;98804.41;4490212;32;19995;-95
2021/12/09 05:11:26;;;;;;;;;;;;;;;3.14;59.35;98808.69;4475583;32;19996;-94
2021/12/09 05:13:52;;;;;;;;;;;;;;;3.26;59.36;98803.31;4476650;32;20035;-94
2021/12/09 05:16:17;;;;;;;;;;;;;;;2.95;59.33;98805.56;4474021;32;19988;-96
2021/12/09 05:18:43;;;;;;;;;;;;;;;3.24;59.35;98822.22;4474478;32;20049;-94
2021/12/09 05:21:09;;;;;;;;;;;;;;;3.31;59.35;98816.06;4477587;32;19992;-95
2021/12/09 05:23:35;;;;;;;;;;;;;;;3.46;59.36;98812.37;4486876;32;19988;-91
2021/12/09 05:26:02;;;;;;;;;;;;;;;3.48;59.37;98805.50;4487407;32;19956;-92
2021/12/09 05:28:32;;;;;;;;;;;;;;;3.22;59.35;98804.25;4478546;32;19967;-94
2021/12/09 05:33:42;;;;;;;;;;;;;;;3.41;59.37;98788.47;4489303;32;19987;-92
2021/12/09 05:36:07;;;;;;;;;;;;;;;3.61;59.38;98796.69;4475998;32;20003;-92
2021/12/09 05:38:32;;;;;;;;;;;;;;;3.52;59.37;98786.53;4475643;32;20029;-93
2021/12/09 05:40:57;;;;;;;;;;;;;;;3.59;59.37;98770.97;4474531;32;20015;-94
2021/12/09 05:43:22;;;;;;;;;;;;;;;3.30;59.36;98774.06;4480215;32;24888;-95
2021/12/09 05:45:48;;;;;;;;;;;;;;;3.36;59.36;98775.72;4487648;32;19983;-94
2021/12/09 05:48:13;;;;;;;;;;;;;;;3.29;59.35;98767.25;4488262;32;19999;-93
2021/12/09 05:50:38;;;;;;;;;;;;;;;3.18;59.35;98758.87;4478240;32;19993;-93
2021/12/09 05:53:04;;;;;;;;;;;;;;;3.08;59.34;98742.78;4475960;32;20002;-95
2021/12/09 05:55:29;;;;;;;;;;;;;;;3.12;59.35;98753.03;4474816;32;19992;-94
2021/12/09 05:57:54;;;;;;;;;;;;;;;3.02;59.34;98739.47;4474114;32;19976;-94
2021/12/09 06:00:19;;;;;;;;;;;;;;;2.95;59.33;98743.03;4473482;32;20030;-93
2021/12/09 06:02:45;;;;;;;;;;;;;;;3.12;59.35;98746.16;4474265;32;20206;-96
2021/12/09 06:05:10;;;;;;;;;;;;;;;3.03;59.35;98747.16;4474166;32;20016;-94
2021/12/09 06:07:35;;;;;;;;;;;;;;;3.06;59.34;98746.25;4474057;32;19988;-95
2021/12/09 06:10:03;;;;;;;;;;;;;;;3.02;59.34;98736.88;4473918;32;20279;-93
2021/12/09 06:12:28;;;;;;;;;;;;;;;2.91;59.33;98738.81;4475733;32;20333;-96
2021/12/09 06:14:53;;;;;;;;;;;;;;;2.95;59.33;98731.00;4481384;32;19976;-94
2021/12/09 06:17:18;;;;;;;;;;;;;;;3.00;59.34;98736.06;4473721;32;20003;-92
2021/12/09 06:19:44;;;;;;;;;;;;;;;2.94;59.35;98739.59;4472639;32;21878;-94
2021/12/09 06:22:09;;;;;;;;;;;;;;;3.05;59.34;98724.81;4472899;32;19995;-93
2021/12/09 06:24:34;;;;;;;;;;;;;;;3.00;59.34;98720.66;4473358;32;20008;-95
2021/12/09 06:27:01;;;;;;;;;;;;;;;2.98;59.34;98719.81;4486562;32;20216;-94
2021/12/09 06:29:26;;;;;;;;;;;;;;;3.02;59.34;98721.47;4473848;32;19996;-94
2021/12/09 06:31:51;;;;;;;;;;;;;;;2.88;59.34;98719.16;4474726;32;19972;-94
2021/12/09 06:34:16;;;;;;;;;;;;;;;3.04;59.34;98707.69;4475321;32;19972;-92
2021/12/09 06:36:42;;;;;;;;;;;;;;;2.89;59.34;98718.28;4473682;32;20051;-95
2021/12/09 06:39:07;;;;;;;;;;;;;;;2.88;59.34;98713.16;4473948;32;19997;-96
2021/12/09 06:41:32;;;;;;;;;;;;;;;2.91;59.34;98710.53;4473853;32;19976;-93
2021/12/09 06:43:57;;;;;;;;;;;;;;;3.12;59.35;98707.59;4473082;32;20033;-94
2021/12/09 06:46:23;;;;;;;;;;;;;;;2.97;59.34;98703.56;4475069;32;20028;-94
2021/12/09 06:48:48;;;;;;;;;;;;;;;3.03;59.35;98707.72;4475522;32;20026;-94
2021/12/09 06:51:13;;;;;;;;;;;;;;;2.82;59.33;98716.66;4475441;32;19973;-93
2021/12/09 06:53:38;;;;;;;;;;;;;;;2.91;59.34;98720.81;4476324;32;19984;-93
2021/12/09 06:56:04;;;;;;;;;;;;;;;2.96;59.35;98737.00;4476797;32;19984;-95
2021/12/09 06:58:29;;;;;;;;;;;;;;;2.97;59.34;98743.84;4489756;32;20034;-96
2021/12/09 07:00:55;;;;;;;;;;;;;;;3.01;59.34;98748.03;4477460;32;20399;-92
2021/12/09 07:03:21;;;;;;;;;;;;;;;3.13;59.35;98740.12;4475575;32;20030;-94
2021/12/09 07:05:47;;;;;;;;;;;;;;;3.28;59.36;98744.13;4475616;32;19961;-92
2021/12/09 07:08:12;;;;;;;;;;;;;;;3.21;59.35;98740.81;4475872;32;20033;-96
2021/12/09 07:10:37;;;;;;;;;;;;;;;3.03;59.35;98739.44;4475913;32;20018;-94
2021/12/09 07:13:04;;;;;;;;;;;;;;;3.12;59.35;98741.00;4476354;32;19988;-92
2021/12/09 07:15:30;;;;;;;;;;;;;;;3.08;59.34;98750.50;4477106;32;19980;-95
2021/12/09 07:17:55;;;;;;;;;;;;;;;3.00;59.34;98749.78;4475421;32;20006;-94
2021/12/09 07:20:22;;;;;;;;;;;;;;;2.94;59.33;98749.03;4474690;32;23923;-93
2021/12/09 07:22:48;;;;;;;;;;;;;;;3.03;59.34;98749.72;4477458;32;20031;-95
2021/12/09 07:25:14;;;;;;;;;;;;;;;3.16;59.34;98734.94;4476154;32;20000;-96
2021/12/09 07:27:39;;;;;;;;;;;;;;;3.01;59.34;98745.47;4475071;32;20306;-93
2021/12/09 07:30:05;;;;;;;;;;;;;;;3.07;59.34;98730.78;4475091;32;20041;-91
2021/12/09 07:32:31;;;;;;;;;;;;;;;2.84;59.33;98721.78;4476067;32;20637;-94
2021/12/09 07:34:57;;;;;;;;;;;;;;;2.82;59.33;98718.41;4477504;32;19992;-92
2021/12/09 07:37:22;;;;;;;;;;;;;;;3.00;59.34;98712.94;4488548;32;22649;-94
2021/12/09 07:39:47;;;;;;;;;;;;;;;2.77;59.33;98710.78;4475042;32;19980;-92
2021/12/09 07:42:14;;;;;;;;;;;;;;;2.61;59.32;98724.78;4475238;32;19977;-91
2021/12/09 07:44:39;;;;;;;;;;;;;;;2.73;59.33;98712.56;4475623;32;19992;-94
2021/12/09 07:47:05;;;;;;;;;;;;;;;2.70;59.33;98710.03;4476006;32;20839;-94
2021/12/09 07:49:30;;;;;;;;;;;;;;;2.83;59.33;98704.66;4474330;32;20425;-93
2021/12/09 07:51:55;;;;;;;;;;;;;;;3.08;59.35;98693.94;4475435;32;19980;-96
2021/12/09 07:54:21;;;;;;;;;;;;;;;2.78;59.33;98685.03;4490462;32;20717;-95
2021/12/09 07:56:46;;;;;;;;;;;;;;;2.92;59.33;98701.97;4475091;32;20007;-92
2021/12/09 07:59:11;;;;;;;;;;;;;;;2.67;59.33;98699.81;4475254;32;19976;-96
2021/12/09 08:01:40;;;;;;;;;;;;;;;2.70;59.33;98702.31;4475054;32;20433;-95
2021/12/09 08:04:05;;;;;;;;;;;;;;;2.66;59.33;98687.00;4488459;32;20049;-95
2021/12/09 08:06:31;;;;;;;;;;;;;;;2.72;59.33;98708.28;4477984;32;20423;-95
2021/12/09 08:08:57;;;;;;;;;;;;;;;2.63;59.32;98681.91;4479802;32;20308;-93
2021/12/09 08:11:23;;;;;;;;;;;;;;;2.59;59.32;98688.81;4476409;32;19952;-94
2021/12/09 08:13:49;;;;;;;;;;;;;;;2.69;59.33;98694.66;4476062;32;20340;-95
2021/12/09 08:16:16;;;;;;;;;;;;;;;2.59;59.32;98700.81;4488302;32;19960;-93
2021/12/09 08:18:53;;;;;;;;;;;;;;;2.53;59.32;98682.94;4488885;32;19983;-91
2021/12/09 08:21:20;;;;;;;;;;;;;;;2.54;59.31;98693.19;4483126;32;19963;-96
2021/12/09 08:23:46;;;;;;;;;;;;;;;2.69;59.33;98704.94;4477284;32;19988;-94
2021/12/09 08:26:11;;;;;;;;;;;;;;;2.52;59.31;98700.06;4475360;32;20409;-93
2021/12/09 08:28:37;;;;;;;;;;;;;;;2.69;59.33;98692.94;4487861;32;20024;-93
2021/12/09 08:31:02;;;;;;;;;;;;;;;2.93;59.34;98685.66;4475318;32;20027;-96
2021/12/09 08:33:28;;;;;;;;;;;;;;;2.93;59.34;98688.22;4488218;32;19984;-94
2021/12/09 08:35:53;;;;;;;;;;;;;;;2.85;59.33;98670.38;4474480;32;20517;-93
2021/12/09 08:38:18;;;;;;;;;;;;;;;2.94;59.33;98670.19;4474773;32;19980;-95
2021/12/09 08:40:45;;;;;;;;;;;;;;;2.94;59.33;98672.78;4474993;32;19976;-96
2021/12/09 08:43:10;;;;;;;;;;;;;;;2.89;59.34;98672.03;4475562;32;19961;-93
2021/12/09 08:45:36;;;;;;;;;;;;;;;2.87;59.33;98673.78;4475118;32;20373;-93
2021/12/09 08:48:01;;;;;;;;;;;;;;;3.07;59.34;98674.22;4475157;32;19976;-96
2021/12/09 08:50:32;;;;;;;;;;;;;;;3.14;59.35;98663.84;4476160;32;22309;-94
2021/12/09 08:52:57;;;;;;;;;;;;;;;2.95;59.33;98660.78;4474892;32;19999;-94
2021/12/09 08:55:23;;;;;;;;;;;;;;;2.95;59.35;98659.03;4473255;32;20044;-95
2021/12/09 08:57:48;;;;;;;;;;;;;;;2.91;59.34;98674.56;4473292;32;25700;-96
2021/12/09 09:00:14;;;;;;;;;;;;;;;3.12;59.35;98671.59;4473533;32;20637;-94
2021/12/09 09:02:40;;;;;;;;;;;;;;;2.99;59.34;98670.97;4474044;32;19948;-95
2021/12/09 09:05:08;;;;;;;;;;;;;;;2.99;59.34;98670.97;4473989;32;19996;-94
2021/12/09 09:07:33;;;;;;;;;;;;;;;3.15;59.35;98673.25;4474742;32;20347;-94
2021/12/09 09:09:58;;;;;;;;;;;;;;;2.93;59.34;98672.81;4476153;32;22911;-94
2021/12/09 09:12:23;;;;;;;;;;;;;;;2.99;59.34;98677.81;4474961;32;20019;-95
2021/12/09 09:14:52;;;;;;;;;;;;;;;3.22;59.36;98672.25;4489100;32;19992;-96
2021/12/09 09:17:17;;;;;;;;;;;;;;;3.06;59.34;98681.97;4475579;32;20036;-96
2021/12/09 09:19:42;;;;;;;;;;;;;;;3.07;59.34;98675.94;4475480;32;19980;-94
2021/12/09 09:22:08;;;;;;;;;;;;;;;3.02;59.35;98678.59;4474828;32;20337;-93
2021/12/09 09:24:33;;;;;;;;;;;;;;;3.17;59.36;98676.63;4474748;32;20000;-92
2021/12/09 09:26:59;;;;;;;;;;;;;;;3.16;59.34;98693.78;4474964;32;19977;-94
2021/12/09 09:29:25;;;;;;;;;;;;;;;3.04;59.34;98686.28;4476614;32;19972;-94
2021/12/09 09:31:50;;;;;;;;;;;;;;;3.21;59.36;98679.09;4474768;32;19988;-93
2021/12/09 09:34:16;;;;;;;;;;;;;;;3.12;59.35;98650.16;4474982;32;20040;-94
2021/12/09 09:36:44;;;;;;;;;;;;;;;3.20;59.36;98649.12;4476255;32;19973;-93
2021/12/09 09:39:22;;;;;;;;;;;;;;;3.16;59.34;98637.22;4474551;32;19990;-94
2021/12/09 09:41:54;;;;;;;;;;;;;;;3.22;59.36;98634.50;4475489;32;20039;-94
2021/12/09 09:44:23;;;;;;;;;;;;;;;3.15;59.35;98630.38;4474764;32;19975;-91
2021/12/09 09:46:48;;;;;;;;;;;;;;;3.05;59.34;98629.69;4474536;32;19988;-94
2021/12/09 09:49:13;;;;;;;;;;;;;;;3.17;59.34;98617.50;4478673;32;19976;-96
2021/12/09 09:51:39;;;;;;;;;;;;;;;3.29;59.35;98612.94;4473742;32;20018;-92
2021/12/09 09:54:06;;;;;;;;;;;;;;;3.11;59.35;98605.63;4473621;32;19993;-95
2021/12/09 09:56:33;;;;;;;;;;;;;;;3.20;59.35;98600.28;4487249;32;19976;-92
2021/12/09 09:59:00;;;;;;;;;;;;;;;3.16;59.35;98618.38;4475495;32;20285;-90
2021/12/09 10:01:25;;;;;;;;;;;;;;;3.31;59.35;98584.59;4473399;32;19976;-90
2021/12/09 10:03:58;;;;;;;;;;;;;;;3.44;59.36;98588.63;4473776;32;20041;-91
2021/12/09 10:06:23;;;;;;;;;;;;;;;3.48;59.37;98592.81;4487537;32;19993;-93
2021/12/09 10:08:48;;;;;;;;;;;;;;;3.43;59.37;98583.50;4475439;32;19980;-93
2021/12/09 10:11:13;;;;;;;;;;;;;;;3.46;59.38;98586.00;4473686;32;20000;-91
2021/12/09 10:13:40;;;;;;;;;;;;;;;3.60;59.37;98596.84;4473031;32;20345;-92
2021/12/09 10:16:14;;;;;;;;;;;;;;;3.54;59.38;98581.53;4472225;32;20107;-93
2021/12/09 10:18:42;;;;;;;;;;;;;;;3.53;59.38;98572.97;4472122;32;19984;-92
2021/12/09 10:21:07;;;;;;;;;;;;;;;3.59;59.38;98577.16;4473733;32;19997;-92
2021/12/09 10:23:42;;;;;;;;;;;;;;;3.70;59.39;98576.00;4474135;32;20000;-93
2021/12/09 10:26:18;;;;;;;;;;;;;;;3.76;59.39;98559.56;4475062;32;19984;-92
2021/12/09 10:28:51;;;;;;;;;;;;;;;3.89;59.39;98553.25;4475268;32;20000;-92
2021/12/09 10:31:21;;;;;;;;;;;;;;;3.78;59.39;98562.09;4476811;32;19960;-92
2021/12/09 10:33:59;;;;;;;;;;;;;;;3.55;59.38;98557.50;4474403;32;20703;-93
2021/12/09 10:36:40;;;;;;;;;;;;;;;3.70;59.38;98570.03;4474767;32;19976;-93
2021/12/09 10:39:20;;;;;;;;;;;;;;;3.93;59.40;98574.63;4487311;32;19995;-92
2021/12/09 10:41:46;;;;;;;;;;;;;;;3.82;59.38;98571.47;4490306;32;20030;-91
2021/12/09 10:44:11;;;;;;;;;;;;;;;3.64;59.38;98578.72;4477087;32;20004;-91
2021/12/09 10:46:56;;;;;;;;;;;;;;;3.81;59.39;98580.94;4474077;32;20301;-92
2021/12/09 10:49:22;;;;;;;;;;;;;;;3.92;59.40;98568.63;4476143;32;19988;-92
2021/12/09 10:51:59;;;;;;;;;;;;;;;3.76;59.38;98584.47;4474777;32;19975;-93
2021/12/09 10:54:35;;;;;;;;;;;;;;;4.02;59.40;98582.13;4478494;32;19969;-93
2021/12/09 10:57:20;;;;;;;;;;;;;;;3.95;59.40;98565.12;4480864;32;20857;-93
2021/12/09 10:59:45;;;;;;;;;;;;;;;3.56;59.38;98577.22;4500473;31;19977;-93
2021/12/09 11:02:11;;;;;;;;;;;;;;;3.79;59.39;98572.41;4487454;31;19980;-92
2021/12/09 11:04:36;;;;;;;;;;;;;;;3.70;59.38;98577.75;4475321;31;19996;-93
2021/12/09 11:07:18;;;;;;;;;;;;;;;3.85;59.39;98561.09;4474449;32;20250;-93
2021/12/09 11:09:43;;;;;;;;;;;;;;;3.82;59.38;98556.03;4473658;32;20610;-94
2021/12/09 11:12:08;;;;;;;;;;;;;;;3.93;59.39;98570.31;4473826;32;19980;-93
2021/12/09 11:14:33;;;;;;;;;;;;;;;3.51;59.37;98561.03;4474484;32;20055;-95
2021/12/09 11:17:03;;;;;;;;;;;;;;;3.69;59.39;98560.59;4474931;32;20041;-95
2021/12/09 11:19:41;;;;;;;;;;;;;;;3.85;59.39;98545.66;4475368;32;19980;-96
2021/12/09 11:22:08;;;;;;;;;;;;;;;3.90;59.39;98548.97;4497555;31;19957;-96
2021/12/09 11:24:37;;;;;;;;;;;;;;;4.10;59.40;98535.59;4481139;32;20555;-96
2021/12/09 11:27:07;;;;;;;;;;;;;;;3.88;59.39;98523.25;4480004;32;20373;-96
2021/12/09 11:29:35;;;;;;;;;;;;;;;3.77;59.39;98522.66;4479040;32;20611;-96
2021/12/09 11:32:17;;;;;;;;;;;;;;;4.03;59.40;98522.03;4482849;32;19999;-96
2021/12/09 11:35:01;;;;;;;;;;;;;;;3.84;59.39;98513.94;4486144;32;19961;-96
2021/12/09 11:40:28;;;;;;;;;;;;;;;3.89;59.39;98526.69;4499266;31;19960;-96
2021/12/09 11:42:58;;;;;;;;;;;;;;;3.89;59.39;98521.53;4497951;32;19960;-96
2021/12/09 11:45:29;;;;;;;;;;;;;;;3.86;59.40;98531.91;4496397;32;20647;-96
2021/12/09 11:47:55;;;;;;;;;;;;;;;3.82;59.38;98523.41;4499670;31;19949;-96
2021/12/09 11:50:26;;;;;;;;;;;;;;;3.90;59.39;98525.78;4482494;32;20290;-96
2021/12/09 11:52:55;;;;;;;;;;;;;;;3.93;59.39;98531.72;4479865;32;20039;-96
2021/12/09 11:55:24;;;;;;;;;;;;;;;3.99;59.40;98510.94;4492615;32;20040;-95
2021/12/09 11:58:03;;;;;;;;;;;;;;;4.02;59.40;98507.44;4479529;32;19995;-96
2021/12/09 12:11:56;;;;;;;;;;;;;;;4.05;59.40;98496.25;4488618;32;20050;-96
2021/12/09 12:14:29;;;;;;;;;;;;;;;3.96;59.39;98497.31;4474302;32;20313;-96
2021/12/09 12:17:09;;;;;;;;;;;;;;;4.07;59.40;98485.03;4473144;32;20393;-96
2021/12/09 12:19:50;;;;;;;;;;;;;;;3.93;59.40;98481.94;4476654;32;20360;-96
2021/12/09 12:25:33;;;;;;;;;;;;;;;3.93;59.39;98485.38;4487785;31;19981;-96
2021/12/09 12:28:17;;;;;;;;;;;;;;;3.94;59.40;98484.47;4487084;32;19989;-96
2021/12/09 12:33:53;;;;;;;;;;;;;;;4.08;59.41;98473.00;4488182;32;20009;-96
2021/12/09 12:39:06;;;;;;;;;;;;;;;3.96;59.39;98475.00;4487429;32;19988;-96
2021/12/09 12:41:32;;;;;;;;;;;;;;;3.92;59.40;98482.84;4476329;32;19995;-96
2021/12/09 12:44:03;;;;;;;;;;;;;;;3.94;59.39;98492.22;4475929;32;19965;-96
2021/12/09 12:46:54;;;;;;;;;;;;;;;3.89;59.39;98494.06;4475152;32;19989;-96
2021/12/09 12:49:35;;;;;;;;;;;;;;;3.98;59.39;98500.69;4487782;31;19975;-96
2021/12/09 12:52:10;;;;;;;;;;;;;;;3.98;59.39;98511.00;4474618;32;19990;-96
2021/12/09 12:57:02;;;;;;;;;;;;;;;4.11;59.41;98503.81;4488100;32;20379;-96
2021/12/09 12:59:31;;;;;;;;;;;;;;;4.15;59.41;98503.69;4475151;32;20019;-96
2021/12/09 13:02:01;;;;;;;;;;;;;;;4.22;59.41;98512.94;4476025;32;20036;-96
2021/12/09 13:04:37;;;;;;;;;;;;;;;4.39;59.42;98504.75;4489880;32;19988;-96
2021/12/09 13:07:20;;;;;;;;;;;;;;;4.13;59.41;98499.47;4490301;32;20003;-96
2021/12/09 13:09:59;;;;;;;;;;;;;;;3.85;59.40;98500.16;4489742;32;20705;-96
2021/12/09 13:12:40;;;;;;;;;;;;;;;4.11;59.41;98501.25;4476745;32;19972;-96
2021/12/09 13:15:20;;;;;;;;;;;;;;;3.97;59.39;98506.72;4490035;32;19972;-96
2021/12/09 13:17:57;;;;;;;;;;;;;;;4.14;59.41;98490.84;4485913;32;19984;-96
2021/12/09 13:20:41;;;;;;;;;;;;;;;4.10;59.40;98489.25;4486278;32;19960;-96
2021/12/09 13:23:14;;;;;;;;;;;;;;;4.09;59.40;98482.41;4480917;32;19967;-96
2021/12/09 13:25:56;;;;;;;;;;;;;;;3.77;59.39;98489.19;4493660;32;19956;-96